Time;durP1;ratioP1;P1;durP2;ratioP2;P2;SDS_P1;SDS_P2;PMS_P1;PMS_P2;Temp;Humidity;BMP_temperature;BMP_pressure;BME280_temperature;BME280_humidity;BME280_pressure;Samples;Min_cycle;Max_cycle;Signal;HPM_P1;HPM_P2
2022/03/31 00:00:30;;;;;;;;;;;;;;;6.03;69.55;100171.69;5053818;28;20384;-36
2022/03/31 00:02:55;;;;;;;;;;;;;;;6.03;68.94;100177.06;5054397;28;19913;-35
2022/03/31 00:05:21;;;;;;;;;;;;;;;5.93;70.12;100183.72;5054509;28;20323;-36
2022/03/31 00:08:07;;;;;;;;;;;;;;;5.85;70.45;100181.25;5053806;28;19919;-36
2022/03/31 00:10:33;;;;;;;;;;;;;;;5.87;70.55;100176.53;5053705;28;20003;-36
2022/03/31 00:12:59;;;;;;;;;;;;;;;5.87;70.26;100178.38;5053680;28;19939;-36
2022/03/31 00:15:26;;;;;;;;;;;;;;;5.86;71.21;100171.38;5053802;28;19932;-36
2022/03/31 00:17:52;;;;;;;;;;;;;;;5.75;71.98;100172.88;5054413;28;19958;-36
2022/03/31 00:20:17;;;;;;;;;;;;;;;5.71;71.51;100174.34;5053795;28;19912;-36
2022/03/31 00:22:42;;;;;;;;;;;;;;;5.72;71.91;100176.00;5053807;28;19913;-36
2022/03/31 00:25:08;;;;;;;;;;;;;;;5.72;71.74;100178.69;5054054;28;19916;-36
2022/03/31 00:27:38;;;;;;;;;;;;;;;5.80;71.15;100169.53;5053682;28;19913;-36
2022/03/31 00:30:05;;;;;;;;;;;;;;;5.86;71.63;100177.56;5054384;28;19944;-36
2022/03/31 00:32:30;;;;;;;;;;;;;;;5.89;70.43;100169.06;5054137;28;19919;-36
2022/03/31 00:34:55;;;;;;;;;;;;;;;5.85;70.81;100167.03;5052921;28;20265;-36
2022/03/31 00:37:21;;;;;;;;;;;;;;;5.79;71.27;100174.09;5053564;28;19976;-36
2022/03/31 00:39:48;;;;;;;;;;;;;;;5.81;71.18;100171.22;5054008;28;19917;-36
2022/03/31 00:42:15;;;;;;;;;;;;;;;5.83;71.41;100179.84;5053391;28;19919;-36
2022/03/31 00:44:41;;;;;;;;;;;;;;;5.85;71.71;100177.75;5053690;28;20360;-36
2022/03/31 00:47:07;;;;;;;;;;;;;;;5.86;70.95;100177.56;5053759;28;19912;-36
2022/03/31 00:49:34;;;;;;;;;;;;;;;5.73;71.64;100177.63;5053291;28;19913;-36
2022/03/31 00:51:59;;;;;;;;;;;;;;;5.66;72.02;100171.47;5053522;28;19912;-36
2022/03/31 00:54:27;;;;;;;;;;;;;;;5.54;72.50;100171.34;5053206;28;20000;-36
2022/03/31 00:56:53;;;;;;;;;;;;;;;5.60;72.28;100161.59;5053457;28;19912;-36
2022/03/31 00:59:19;;;;;;;;;;;;;;;5.60;72.25;100169.66;5052832;28;19935;-36
2022/03/31 01:01:45;;;;;;;;;;;;;;;5.59;72.46;100166.16;5053590;28;20355;-36
2022/03/31 01:04:11;;;;;;;;;;;;;;;5.59;72.02;100165.34;5052834;28;20373;-36
2022/03/31 01:06:36;;;;;;;;;;;;;;;5.60;72.58;100167.78;5053098;28;19920;-36
2022/03/31 01:09:01;;;;;;;;;;;;;;;5.59;73.31;100162.66;5053537;28;19932;-36
2022/03/31 01:11:29;;;;;;;;;;;;;;;5.52;73.70;100164.56;5053327;28;19913;-36
2022/03/31 01:13:55;;;;;;;;;;;;;;;5.31;75.23;100160.31;5053200;28;20058;-36
2022/03/31 01:16:20;;;;;;;;;;;;;;;5.16;76.28;100158.72;5052917;28;19978;-36
2022/03/31 01:18:45;;;;;;;;;;;;;;;5.22;75.73;100157.06;5053378;28;19919;-36
2022/03/31 01:21:10;;;;;;;;;;;;;;;5.21;76.49;100146.53;5053447;28;20264;-35
2022/03/31 01:23:36;;;;;;;;;;;;;;;5.19;76.77;100146.75;5052890;28;19913;-36
2022/03/31 01:26:05;;;;;;;;;;;;;;;5.12;77.37;100145.94;5053694;28;19912;-36
2022/03/31 01:28:30;;;;;;;;;;;;;;;5.17;76.44;100143.44;5052665;28;19987;-36
2022/03/31 01:30:55;;;;;;;;;;;;;;;5.18;77.61;100150.47;5053335;28;19954;-36
2022/03/31 01:33:20;;;;;;;;;;;;;;;5.22;76.29;100149.03;5052847;28;19917;-36
2022/03/31 01:35:45;;;;;;;;;;;;;;;5.22;76.95;100135.63;5052774;28;19913;-36
2022/03/31 01:38:11;;;;;;;;;;;;;;;5.21;77.07;100146.53;5052539;28;19913;-36
2022/03/31 01:40:36;;;;;;;;;;;;;;;5.23;75.73;100137.25;5053606;28;19921;-35
2022/03/31 01:43:02;;;;;;;;;;;;;;;5.13;77.81;100144.94;5053003;28;19913;-35
2022/03/31 01:45:27;;;;;;;;;;;;;;;4.88;79.87;100145.66;5052665;28;19936;-35
2022/03/31 01:47:52;;;;;;;;;;;;;;;4.91;80.06;100147.06;5052661;28;19928;-36
2022/03/31 01:50:17;;;;;;;;;;;;;;;4.84;80.21;100144.41;5052486;28;20290;-36
2022/03/31 01:52:43;;;;;;;;;;;;;;;4.86;80.22;100146.88;5052630;28;20006;-36
2022/03/31 01:55:09;;;;;;;;;;;;;;;4.88;79.94;100147.47;5052516;28;19913;-36
2022/03/31 01:57:34;;;;;;;;;;;;;;;4.87;80.28;100132.44;5052376;28;19919;-35
2022/03/31 02:00:03;;;;;;;;;;;;;;;4.83;79.98;100133.88;5052716;28;19919;-36
2022/03/31 02:02:28;;;;;;;;;;;;;;;4.88;80.65;100134.94;5053289;28;20337;-36
2022/03/31 02:04:53;;;;;;;;;;;;;;;4.88;80.13;100129.56;5052663;28;19948;-35
2022/03/31 02:07:19;;;;;;;;;;;;;;;4.87;81.23;100122.53;5052611;28;19967;-36
2022/03/31 02:09:44;;;;;;;;;;;;;;;4.95;80.22;100128.72;5054511;28;20295;-35
2022/03/31 02:12:09;;;;;;;;;;;;;;;4.98;81.09;100130.94;5056258;28;20360;-35
2022/03/31 02:14:37;;;;;;;;;;;;;;;5.01;80.05;100125.19;5056504;28;20335;-36
2022/03/31 02:17:06;;;;;;;;;;;;;;;4.90;81.82;100122.13;5055861;28;19920;-36
2022/03/31 02:19:31;;;;;;;;;;;;;;;4.91;81.07;100117.59;5056171;28;20360;-35
2022/03/31 02:21:56;;;;;;;;;;;;;;;4.80;82.91;100120.94;5056306;28;19912;-36
2022/03/31 02:24:22;;;;;;;;;;;;;;;4.81;83.57;100112.69;5056500;28;20332;-35
2022/03/31 02:26:48;;;;;;;;;;;;;;;4.84;83.02;100114.94;5055873;28;20265;-35
2022/03/31 02:29:13;;;;;;;;;;;;;;;4.80;84.41;100116.41;5055874;28;19935;-36
2022/03/31 02:31:38;;;;;;;;;;;;;;;4.74;84.70;100116.44;5055862;28;19967;-36
2022/03/31 02:34:04;;;;;;;;;;;;;;;4.61;86.21;100109.25;5055544;28;19917;-36
2022/03/31 02:36:30;;;;;;;;;;;;;;;4.55;85.93;100104.72;5055468;28;19913;-35
2022/03/31 02:38:56;;;;;;;;;;;;;;;4.40;87.61;100102.28;5055811;28;19955;-35
2022/03/31 02:41:21;;;;;;;;;;;;;;;4.45;85.77;100107.84;5056388;28;19963;-36
2022/03/31 02:43:46;;;;;;;;;;;;;;;4.33;87.07;100107.63;5056030;28;20383;-36
2022/03/31 02:46:12;;;;;;;;;;;;;;;4.39;85.72;100106.81;5056137;28;19931;-36
2022/03/31 02:48:37;;;;;;;;;;;;;;;4.45;85.49;100110.50;5055281;28;19956;-36
2022/03/31 02:51:02;;;;;;;;;;;;;;;4.42;86.12;100107.44;5055694;28;19920;-35
2022/03/31 02:56:11;;;;;;;;;;;;;;;4.31;86.39;100103.53;5055136;28;19958;-35
2022/03/31 02:58:37;;;;;;;;;;;;;;;4.21;85.56;100106.63;5055773;28;19916;-35
2022/03/31 03:01:02;;;;;;;;;;;;;;;4.17;86.38;100099.22;5055317;28;19913;-35
2022/03/31 03:03:28;;;;;;;;;;;;;;;3.97;87.93;100099.22;5054898;28;19924;-36
2022/03/31 03:05:54;;;;;;;;;;;;;;;3.98;86.16;100090.16;5055647;28;20353;-36
2022/03/31 03:08:19;;;;;;;;;;;;;;;3.91;86.65;100081.34;5055142;28;19913;-35
2022/03/31 03:10:45;;;;;;;;;;;;;;;3.57;90.25;100083.16;5055564;28;19965;-36
2022/03/31 03:13:10;;;;;;;;;;;;;;;3.45;91.44;100084.78;5054861;28;19917;-35
2022/03/31 03:15:36;;;;;;;;;;;;;;;3.33;91.40;100081.88;5054963;28;19916;-35
2022/03/31 03:18:02;;;;;;;;;;;;;;;3.28;90.56;100073.66;5055005;28;19913;-35
2022/03/31 03:20:27;;;;;;;;;;;;;;;3.17;91.54;100071.53;5054926;28;20324;-35
2022/03/31 03:22:53;;;;;;;;;;;;;;;3.15;91.68;100073.63;5054601;28;19913;-35
2022/03/31 03:25:19;;;;;;;;;;;;;;;3.16;91.13;100070.72;5054540;28;19917;-35
2022/03/31 03:27:46;;;;;;;;;;;;;;;3.19;90.75;100073.00;5054788;28;19919;-36
2022/03/31 03:30:11;;;;;;;;;;;;;;;3.25;89.86;100076.72;5055313;28;19917;-35
2022/03/31 03:32:37;;;;;;;;;;;;;;;3.19;90.52;100075.69;5054726;28;20379;-35
2022/03/31 03:35:06;;;;;;;;;;;;;;;3.20;89.77;100071.97;5054972;28;20345;-35
2022/03/31 03:37:31;;;;;;;;;;;;;;;3.23;88.65;100079.59;5054565;28;19936;-36
2022/03/31 03:39:57;;;;;;;;;;;;;;;3.22;89.52;100075.28;5054684;28;19913;-35
2022/03/31 03:42:22;;;;;;;;;;;;;;;3.29;88.50;100081.47;5054565;28;19920;-35
2022/03/31 03:44:48;;;;;;;;;;;;;;;3.33;88.08;100082.72;5054839;28;20003;-35
2022/03/31 03:47:13;;;;;;;;;;;;;;;3.34;89.04;100086.19;5054498;28;19913;-35
2022/03/31 03:49:38;;;;;;;;;;;;;;;3.33;88.41;100087.22;5054755;28;20415;-35
2022/03/31 03:52:04;;;;;;;;;;;;;;;3.28;88.74;100087.00;5054728;28;19920;-35
2022/03/31 03:54:29;;;;;;;;;;;;;;;3.28;87.80;100085.16;5054778;28;20244;-35
2022/03/31 03:56:54;;;;;;;;;;;;;;;3.27;88.25;100088.88;5054946;28;20281;-35
2022/03/31 03:59:20;;;;;;;;;;;;;;;3.28;87.84;100089.69;5054250;28;19917;-35
2022/03/31 04:01:45;;;;;;;;;;;;;;;3.31;87.94;100090.09;5054475;28;20390;-35
2022/03/31 04:04:10;;;;;;;;;;;;;;;3.32;88.06;100097.09;5054516;28;20015;-35
2022/03/31 04:06:36;;;;;;;;;;;;;;;3.27;87.78;100093.34;5054477;28;20058;-35
2022/03/31 04:09:01;;;;;;;;;;;;;;;3.24;88.03;100089.25;5053809;28;20296;-35
2022/03/31 04:11:28;;;;;;;;;;;;;;;3.26;87.65;100089.88;5053682;28;20365;-35
2022/03/31 04:13:53;;;;;;;;;;;;;;;3.26;87.71;100084.53;5053524;28;19923;-35
2022/03/31 04:16:18;;;;;;;;;;;;;;;3.20;87.34;100082.66;5053866;28;19913;-35
2022/03/31 04:18:44;;;;;;;;;;;;;;;3.18;86.89;100083.91;5053846;28;19913;-35
2022/03/31 04:21:10;;;;;;;;;;;;;;;3.14;88.00;100083.47;5053850;28;19913;-35
2022/03/31 04:23:35;;;;;;;;;;;;;;;3.17;87.46;100087.56;5054007;28;19912;-36
2022/03/31 04:26:00;;;;;;;;;;;;;;;3.08;88.62;100090.44;5054096;28;19912;-35
2022/03/31 04:28:26;;;;;;;;;;;;;;;3.03;88.00;100094.75;5054365;28;19916;-35
2022/03/31 04:30:51;;;;;;;;;;;;;;;2.98;88.11;100090.00;5052500;28;20331;-35
2022/03/31 04:33:16;;;;;;;;;;;;;;;2.97;88.33;100090.19;5053608;28;19983;-35
2022/03/31 04:35:41;;;;;;;;;;;;;;;3.00;87.91;100087.13;5053483;28;19913;-35
2022/03/31 04:38:07;;;;;;;;;;;;;;;2.86;88.54;100093.44;5052817;28;19913;-35
2022/03/31 04:40:32;;;;;;;;;;;;;;;2.70;90.12;100095.41;5053992;28;19912;-35
2022/03/31 04:42:57;;;;;;;;;;;;;;;2.59;89.86;100096.00;5053387;28;19913;-35
2022/03/31 04:45:23;;;;;;;;;;;;;;;2.60;90.32;100102.16;5053527;28;19934;-35
2022/03/31 04:47:48;;;;;;;;;;;;;;;2.67;89.12;100105.66;5053405;28;19948;-36
2022/03/31 04:50:14;;;;;;;;;;;;;;;2.72;89.08;100101.38;5053785;28;19913;-35
2022/03/31 04:52:39;;;;;;;;;;;;;;;2.70;90.47;100092.75;5052915;28;19913;-35
2022/03/31 04:55:05;;;;;;;;;;;;;;;2.62;91.29;100095.56;5053401;28;19913;-35
2022/03/31 04:57:30;;;;;;;;;;;;;;;2.44;92.64;100097.94;5053137;28;19916;-35
2022/03/31 04:59:56;;;;;;;;;;;;;;;2.38;92.08;100099.53;5053151;28;20420;-36
2022/03/31 05:02:21;;;;;;;;;;;;;;;2.38;92.92;100104.06;5053070;28;20003;-35
2022/03/31 05:04:46;;;;;;;;;;;;;;;2.41;91.73;100096.50;5053351;28;20353;-35
2022/03/31 05:07:11;;;;;;;;;;;;;;;2.47;92.53;100101.03;5052726;28;19975;-35
2022/03/31 05:09:37;;;;;;;;;;;;;;;2.52;91.62;100098.59;5053376;28;19912;-35
2022/03/31 05:12:03;;;;;;;;;;;;;;;2.58;90.81;100103.16;5053293;28;19912;-35
2022/03/31 05:14:28;;;;;;;;;;;;;;;2.54;91.99;100093.09;5052934;28;19924;-35
2022/03/31 05:16:53;;;;;;;;;;;;;;;2.54;91.02;100096.56;5052812;28;19962;-36
2022/03/31 05:19:19;;;;;;;;;;;;;;;2.50;91.54;100097.16;5053516;28;19919;-35
2022/03/31 05:21:44;;;;;;;;;;;;;;;2.48;91.95;100099.19;5053145;28;19913;-35
2022/03/31 05:24:09;;;;;;;;;;;;;;;2.48;92.36;100101.84;5052977;28;19963;-35
2022/03/31 05:26:35;;;;;;;;;;;;;;;2.46;91.21;100101.25;5053481;28;19975;-35
2022/03/31 05:29:00;;;;;;;;;;;;;;;2.39;91.21;100100.34;5053143;28;19924;-35
2022/03/31 05:31:25;;;;;;;;;;;;;;;2.30;91.04;100103.19;5053462;28;20242;-35
2022/03/31 05:33:51;;;;;;;;;;;;;;;2.18;91.21;100109.25;5052880;28;19923;-35
2022/03/31 05:36:16;;;;;;;;;;;;;;;2.11;91.58;100108.41;5052862;28;19934;-35
2022/03/31 05:38:41;;;;;;;;;;;;;;;2.04;92.51;100101.16;5052671;28;19912;-35
2022/03/31 05:41:06;;;;;;;;;;;;;;;2.05;92.50;100104.66;5052881;28;19919;-35
2022/03/31 05:43:31;;;;;;;;;;;;;;;2.05;91.84;100107.34;5052556;28;19913;-35
2022/03/31 05:45:57;;;;;;;;;;;;;;;2.03;92.10;100112.00;5056436;28;20249;-35
2022/03/31 05:48:22;;;;;;;;;;;;;;;2.02;92.48;100110.38;5056506;28;19913;-35
2022/03/31 05:50:47;;;;;;;;;;;;;;;1.96;92.38;100113.81;5056455;28;19912;-35
2022/03/31 05:53:13;;;;;;;;;;;;;;;1.98;92.48;100117.09;5056108;28;19913;-35
2022/03/31 05:55:40;;;;;;;;;;;;;;;1.92;92.28;100109.88;5056307;28;19920;-35
2022/03/31 05:58:05;;;;;;;;;;;;;;;1.91;92.75;100118.91;5056233;28;19967;-35
2022/03/31 06:00:31;;;;;;;;;;;;;;;1.95;91.87;100114.81;5056209;28;19920;-35
2022/03/31 06:02:56;;;;;;;;;;;;;;;1.97;92.53;100105.63;5056174;28;19913;-35
2022/03/31 06:05:21;;;;;;;;;;;;;;;1.96;92.49;100108.50;5055965;28;19932;-35
2022/03/31 06:07:47;;;;;;;;;;;;;;;1.97;92.24;100110.13;5055735;28;19916;-35
2022/03/31 06:10:13;;;;;;;;;;;;;;;1.94;92.45;100113.16;5056515;28;19974;-35
2022/03/31 06:12:38;;;;;;;;;;;;;;;1.98;91.64;100109.09;5055986;28;19916;-35
2022/03/31 06:15:04;;;;;;;;;;;;;;;1.87;93.42;100113.13;5056310;28;19967;-36
2022/03/31 06:17:29;;;;;;;;;;;;;;;1.93;92.74;100108.84;5055531;28;19999;-35
2022/03/31 06:19:54;;;;;;;;;;;;;;;1.74;93.32;100099.66;5056062;28;20016;-35
2022/03/31 06:22:20;;;;;;;;;;;;;;;1.78;93.14;100098.28;5055812;28;20361;-35
2022/03/31 06:24:45;;;;;;;;;;;;;;;1.82;93.04;100098.72;5055734;28;19912;-36
2022/03/31 06:27:11;;;;;;;;;;;;;;;1.83;92.58;100111.03;5056325;28;19917;-35
2022/03/31 06:29:36;;;;;;;;;;;;;;;1.75;93.17;100112.78;5055602;28;19936;-35
2022/03/31 06:32:02;;;;;;;;;;;;;;;1.78;92.27;100112.44;5055815;28;19928;-35
2022/03/31 06:34:27;;;;;;;;;;;;;;;1.76;93.15;100113.66;5055686;28;19916;-35
2022/03/31 06:36:54;;;;;;;;;;;;;;;1.78;92.52;100109.75;5055337;28;19920;-35
2022/03/31 06:39:19;;;;;;;;;;;;;;;1.86;92.17;100110.66;5056117;28;19912;-35
2022/03/31 06:41:44;;;;;;;;;;;;;;;1.80;92.70;100112.22;5055680;28;19959;-35
2022/03/31 06:44:13;;;;;;;;;;;;;;;1.84;92.47;100107.34;5055507;28;20368;-35
2022/03/31 06:46:38;;;;;;;;;;;;;;;1.90;92.58;100115.38;5055557;28;20375;-35
2022/03/31 06:49:04;;;;;;;;;;;;;;;1.79;93.66;100114.06;5055277;28;19963;-35
2022/03/31 06:51:29;;;;;;;;;;;;;;;1.63;95.76;100117.00;5055224;28;19913;-35
2022/03/31 06:53:57;;;;;;;;;;;;;;;1.73;93.50;100117.50;5054882;28;20330;-35
2022/03/31 06:56:23;;;;;;;;;;;;;;;1.79;94.03;100106.06;5054722;28;20261;-35
2022/03/31 06:58:48;;;;;;;;;;;;;;;1.88;93.42;100116.63;5055093;28;19913;-35
2022/03/31 07:01:14;;;;;;;;;;;;;;;1.94;93.45;100118.50;5055308;28;20309;-35
2022/03/31 07:03:39;;;;;;;;;;;;;;;1.95;93.80;100115.66;5054929;28;20007;-35
2022/03/31 07:06:06;;;;;;;;;;;;;;;1.98;93.41;100117.94;5055200;28;20258;-35
2022/03/31 07:08:33;;;;;;;;;;;;;;;1.98;93.81;100111.78;5055226;28;20356;-35
2022/03/31 07:10:59;;;;;;;;;;;;;;;2.01;93.79;100111.41;5055141;28;20281;-35
2022/03/31 07:13:24;;;;;;;;;;;;;;;1.91;94.95;100105.56;5054611;28;19912;-35
2022/03/31 07:15:49;;;;;;;;;;;;;;;1.92;94.61;100109.88;5055460;28;19920;-35
2022/03/31 07:18:15;;;;;;;;;;;;;;;1.87;94.50;100112.31;5054745;28;19913;-35
2022/03/31 07:20:40;;;;;;;;;;;;;;;1.76;95.27;100116.31;5054978;28;19917;-35
2022/03/31 07:23:06;;;;;;;;;;;;;;;1.82;95.05;100114.72;5055555;28;20354;-35
2022/03/31 07:25:31;;;;;;;;;;;;;;;1.87;95.61;100113.13;5054806;28;20323;-35
2022/03/31 07:27:57;;;;;;;;;;;;;;;1.89;95.35;100112.91;5054548;28;19920;-35
2022/03/31 07:30:22;;;;;;;;;;;;;;;1.59;97.65;100104.25;5054891;28;19912;-35
2022/03/31 07:32:56;;;;;;;;;;;;;;;1.61;97.52;100107.53;5054423;28;20019;-35
2022/03/31 07:35:22;;;;;;;;;;;;;;;1.67;96.82;100104.94;5055087;28;20257;-35
2022/03/31 07:37:47;;;;;;;;;;;;;;;1.76;96.42;100111.81;5054298;28;19919;-35
2022/03/31 07:40:13;;;;;;;;;;;;;;;1.88;95.29;100114.78;5054320;28;19913;-35
2022/03/31 07:42:38;;;;;;;;;;;;;;;1.99;95.89;100113.41;5054255;28;19919;-35
2022/03/31 07:45:04;;;;;;;;;;;;;;;2.02;96.04;100121.03;5054681;28;20272;-35
2022/03/31 07:47:29;;;;;;;;;;;;;;;2.03;95.68;100110.16;5054114;28;19920;-35
2022/03/31 07:49:54;;;;;;;;;;;;;;;2.11;94.82;100111.88;5054430;28;20003;-35
2022/03/31 07:52:21;;;;;;;;;;;;;;;2.20;94.36;100110.72;5053767;28;20391;-36
2022/03/31 07:54:47;;;;;;;;;;;;;;;2.28;94.29;100099.88;5053928;28;20315;-36
2022/03/31 07:57:12;;;;;;;;;;;;;;;2.38;93.92;100104.06;5054453;28;19920;-35
2022/03/31 07:59:37;;;;;;;;;;;;;;;2.45;93.49;100096.94;5054647;28;19912;-35
2022/03/31 08:02:03;;;;;;;;;;;;;;;2.44;93.92;100100.59;5053880;28;19917;-36
2022/03/31 08:04:28;;;;;;;;;;;;;;;2.40;94.88;100102.03;5054633;28;19912;-35
2022/03/31 08:06:54;;;;;;;;;;;;;;;2.28;96.17;100097.22;5053628;28;19920;-35
2022/03/31 08:09:21;;;;;;;;;;;;;;;2.30;96.21;100102.38;5054271;28;20307;-35
2022/03/31 08:11:47;;;;;;;;;;;;;;;2.29;96.24;100106.91;5053665;28;19949;-35
2022/03/31 08:14:16;;;;;;;;;;;;;;;2.30;95.47;100095.19;5053576;28;19917;-35
2022/03/31 08:16:42;;;;;;;;;;;;;;;2.34;95.88;100092.94;5054111;28;19923;-35
2022/03/31 08:19:08;;;;;;;;;;;;;;;2.37;96.31;100102.41;5053548;28;20083;-35
2022/03/31 08:21:33;;;;;;;;;;;;;;;2.42;95.88;100099.97;5054033;28;19967;-35
2022/03/31 08:23:58;;;;;;;;;;;;;;;2.48;95.61;100091.19;5053981;28;20074;-35
2022/03/31 08:26:24;;;;;;;;;;;;;;;2.53;95.80;100096.75;5053506;28;19959;-35
2022/03/31 08:28:50;;;;;;;;;;;;;;;2.57;94.62;100093.50;5053219;28;19924;-35
2022/03/31 08:31:15;;;;;;;;;;;;;;;2.52;95.15;100097.78;5053733;28;19912;-35
2022/03/31 08:33:42;;;;;;;;;;;;;;;2.47;96.83;100098.38;5053403;28;19913;-35
2022/03/31 08:36:07;;;;;;;;;;;;;;;2.39;97.07;100092.34;5052953;28;19913;-35
2022/03/31 08:38:33;;;;;;;;;;;;;;;2.42;97.43;100094.66;5053030;28;19919;-35
2022/03/31 08:40:58;;;;;;;;;;;;;;;2.51;96.31;100085.47;5053295;28;19913;-33
2022/03/31 08:43:26;;;;;;;;;;;;;;;2.58;96.46;100084.47;5053683;28;19912;-34
2022/03/31 08:45:55;;;;;;;;;;;;;;;2.66;96.43;100085.34;5053214;28;20003;-34
2022/03/31 08:48:21;;;;;;;;;;;;;;;2.69;97.15;100085.78;5053620;28;19921;-34
2022/03/31 08:50:47;;;;;;;;;;;;;;;2.65;96.50;100084.50;5053365;28;19954;-34
2022/03/31 08:53:12;;;;;;;;;;;;;;;2.73;97.39;100087.03;5053008;28;20400;-34
2022/03/31 08:55:37;;;;;;;;;;;;;;;2.77;96.60;100093.59;5052658;28;19913;-34
2022/03/31 08:58:02;;;;;;;;;;;;;;;2.87;96.83;100084.41;5052709;28;20015;-34
2022/03/31 09:00:28;;;;;;;;;;;;;;;2.84;96.62;100089.13;5053450;28;20058;-34
2022/03/31 09:02:55;;;;;;;;;;;;;;;2.92;96.16;100095.31;5052903;28;20242;-34
2022/03/31 09:05:20;;;;;;;;;;;;;;;2.98;96.48;100090.00;5053143;28;19917;-34
2022/03/31 09:07:59;;;;;;;;;;;;;;;3.08;95.73;100100.31;5052877;28;19913;-34
2022/03/31 09:10:34;;;;;;;;;;;;;;;3.18;95.11;100108.78;5053521;28;20281;-34
2022/03/31 09:13:01;;;;;;;;;;;;;;;3.13;95.14;100113.91;5053384;28;19912;-34
2022/03/31 09:15:27;;;;;;;;;;;;;;;3.12;94.74;100106.88;5053292;28;19917;-34
2022/03/31 09:17:56;;;;;;;;;;;;;;;3.14;94.75;100110.19;5053024;28;19912;-34
2022/03/31 09:20:22;;;;;;;;;;;;;;;3.17;94.79;100111.63;5056135;28;19943;-34
2022/03/31 09:22:49;;;;;;;;;;;;;;;3.17;94.57;100104.44;5056899;28;19912;-34
2022/03/31 09:25:24;;;;;;;;;;;;;;;3.23;94.50;100110.84;5057222;28;20262;-34
2022/03/31 09:27:49;;;;;;;;;;;;;;;3.28;94.45;100106.53;5056873;28;20314;-34
2022/03/31 09:30:15;;;;;;;;;;;;;;;3.36;94.22;100109.00;5056973;28;19920;-34
2022/03/31 09:32:51;;;;;;;;;;;;;;;3.35;93.72;100106.53;5056700;28;19924;-34
2022/03/31 09:35:21;;;;;;;;;;;;;;;3.35;93.92;100107.38;5056663;28;19959;-34
2022/03/31 09:37:49;;;;;;;;;;;;;;;3.35;94.31;100107.38;5056771;28;19957;-34
2022/03/31 09:40:14;;;;;;;;;;;;;;;3.39;93.97;100106.97;5056325;28;20377;-34
2022/03/31 09:42:39;;;;;;;;;;;;;;;3.40;94.20;100105.94;5057094;28;19917;-34
2022/03/31 09:45:08;;;;;;;;;;;;;;;3.43;93.80;100109.03;5056883;28;19919;-34
2022/03/31 09:47:42;;;;;;;;;;;;;;;3.49;93.75;100107.41;5056430;28;20402;-34
2022/03/31 09:50:07;;;;;;;;;;;;;;;3.47;93.82;100098.78;5056448;28;19920;-34
2022/03/31 09:52:32;;;;;;;;;;;;;;;3.45;93.56;100106.97;5056122;28;19924;-35
2022/03/31 09:54:58;;;;;;;;;;;;;;;3.46;94.41;100097.09;5056536;28;20357;-34
2022/03/31 09:57:24;;;;;;;;;;;;;;;3.33;94.03;100104.09;5056407;28;19939;-34
2022/03/31 09:59:52;;;;;;;;;;;;;;;3.43;94.38;100095.69;5056834;28;19951;-34
2022/03/31 10:02:18;;;;;;;;;;;;;;;3.52;93.91;100094.47;5056720;28;19913;-35
2022/03/31 10:04:46;;;;;;;;;;;;;;;3.65;94.26;100093.66;5055937;28;19920;-34
2022/03/31 10:07:12;;;;;;;;;;;;;;;3.67;93.90;100096.94;5056415;28;19948;-34
2022/03/31 10:09:39;;;;;;;;;;;;;;;3.69;93.65;100089.53;5056142;28;19917;-34
2022/03/31 10:12:14;;;;;;;;;;;;;;;3.74;93.67;100092.41;5056642;28;19913;-34
2022/03/31 10:14:59;;;;;;;;;;;;;;;3.79;93.31;100099.84;5056253;28;19970;-34
2022/03/31 10:17:26;;;;;;;;;;;;;;;3.80;92.93;100098.78;5056366;28;19999;-34
2022/03/31 10:19:52;;;;;;;;;;;;;;;3.81;92.70;100097.78;5056093;28;19913;-34
2022/03/31 10:25:03;;;;;;;;;;;;;;;3.74;93.84;100097.78;5056418;28;19943;-34
2022/03/31 10:27:30;;;;;;;;;;;;;;;3.71;93.75;100095.53;5055719;28;19967;-34
2022/03/31 10:30:06;;;;;;;;;;;;;;;3.76;93.24;100095.72;5055609;28;19912;-34
2022/03/31 10:32:31;;;;;;;;;;;;;;;3.82;92.73;100097.56;5055833;28;19917;-34
2022/03/31 10:34:57;;;;;;;;;;;;;;;3.84;92.73;100092.84;5055606;28;20106;-34
2022/03/31 10:37:34;;;;;;;;;;;;;;;3.87;93.15;100094.28;5056134;28;19935;-34
2022/03/31 10:40:00;;;;;;;;;;;;;;;3.86;92.79;100092.66;5055554;28;19977;-34
2022/03/31 10:42:25;;;;;;;;;;;;;;;3.90;92.71;100093.88;5055842;28;19913;-34
2022/03/31 10:45:12;;;;;;;;;;;;;;;3.97;92.30;100086.69;5055631;28;19912;-34
2022/03/31 10:47:40;;;;;;;;;;;;;;;3.99;92.25;100089.13;5055858;28;19920;-34
2022/03/31 10:50:07;;;;;;;;;;;;;;;4.06;92.27;100087.28;5055217;28;19912;-34
2022/03/31 10:52:32;;;;;;;;;;;;;;;4.10;91.96;100080.50;5055872;28;19912;-34
2022/03/31 10:55:11;;;;;;;;;;;;;;;4.13;91.55;100088.91;5056026;28;19936;-34
2022/03/31 10:57:40;;;;;;;;;;;;;;;4.18;91.13;100085.63;5055005;28;19912;-34
2022/03/31 11:00:08;;;;;;;;;;;;;;;4.17;91.59;100086.66;5055274;28;19919;-34
2022/03/31 11:02:38;;;;;;;;;;;;;;;4.12;91.73;100086.47;5055179;28;19960;-34
2022/03/31 11:05:04;;;;;;;;;;;;;;;4.11;91.22;100084.81;5054970;28;20285;-34
2022/03/31 11:07:29;;;;;;;;;;;;;;;4.14;90.97;100084.38;5055098;28;20373;-35
2022/03/31 11:10:17;;;;;;;;;;;;;;;4.16;90.99;100082.34;5055543;28;19919;-35
2022/03/31 11:12:42;;;;;;;;;;;;;;;4.16;90.82;100079.66;5055190;28;19920;-34
2022/03/31 11:15:17;;;;;;;;;;;;;;;4.19;90.50;100079.22;5055185;28;19917;-35
2022/03/31 11:17:43;;;;;;;;;;;;;;;4.16;90.97;100070.81;5055143;28;19927;-35
2022/03/31 11:20:22;;;;;;;;;;;;;;;4.18;90.88;100077.59;5054919;28;19913;-34
2022/03/31 11:22:48;;;;;;;;;;;;;;;4.27;91.13;100075.53;5054901;28;19913;-34
2022/03/31 11:25:14;;;;;;;;;;;;;;;4.35;91.25;100070.78;5055478;28;19919;-35
2022/03/31 11:27:40;;;;;;;;;;;;;;;4.43;91.73;100069.72;5054813;28;20332;-34
2022/03/31 11:30:13;;;;;;;;;;;;;;;4.49;91.40;100065.38;5055451;28;19919;-34
2022/03/31 11:32:38;;;;;;;;;;;;;;;4.57;90.99;100059.81;5054403;28;19919;-34
2022/03/31 11:35:09;;;;;;;;;;;;;;;4.67;90.15;100065.53;5055276;28;19912;-34
2022/03/31 11:37:34;;;;;;;;;;;;;;;4.71;89.53;100057.91;5054757;28;19913;-34
2022/03/31 11:39:59;;;;;;;;;;;;;;;4.44;89.58;100059.84;5054514;28;19939;-34
2022/03/31 11:42:25;;;;;;;;;;;;;;;4.45;90.26;100062.31;5053764;28;19965;-35
2022/03/31 11:44:50;;;;;;;;;;;;;;;4.45;90.13;100059.66;5054413;28;19917;-34
2022/03/31 11:47:20;;;;;;;;;;;;;;;4.47;90.75;100052.22;5054306;28;19919;-34
2022/03/31 11:49:55;;;;;;;;;;;;;;;4.46;91.57;100049.75;5054114;28;19913;-34
2022/03/31 11:52:27;;;;;;;;;;;;;;;4.51;91.66;100053.44;5053987;28;19962;-34
2022/03/31 11:54:53;;;;;;;;;;;;;;;4.59;91.51;100049.72;5054871;28;20264;-35
2022/03/31 11:57:19;;;;;;;;;;;;;;;4.52;91.08;100048.91;5054271;28;19912;-35
2022/03/31 11:59:44;;;;;;;;;;;;;;;4.54;90.93;100054.84;5054823;28;20230;-35
2022/03/31 12:02:13;;;;;;;;;;;;;;;4.57;91.11;100051.78;5054072;28;19923;-34
2022/03/31 12:04:38;;;;;;;;;;;;;;;4.63;90.71;100049.06;5053979;28;19913;-34
2022/03/31 12:07:04;;;;;;;;;;;;;;;4.65;90.99;100056.91;5054099;28;20441;-35
2022/03/31 12:09:30;;;;;;;;;;;;;;;4.64;90.93;100041.88;5053905;28;19923;-35
2022/03/31 12:11:56;;;;;;;;;;;;;;;4.64;90.92;100044.56;5053896;28;19966;-34
2022/03/31 12:14:22;;;;;;;;;;;;;;;4.50;91.68;100046.44;5053594;28;20019;-35
2022/03/31 12:16:51;;;;;;;;;;;;;;;4.24;91.56;100041.97;5053860;28;19923;-34
2022/03/31 12:19:17;;;;;;;;;;;;;;;4.26;91.73;100039.91;5053774;28;19959;-34
2022/03/31 12:21:46;;;;;;;;;;;;;;;4.35;91.38;100041.34;5054080;28;19963;-35
2022/03/31 12:24:12;;;;;;;;;;;;;;;4.42;91.66;100043.16;5053733;28;20011;-34
2022/03/31 12:26:38;;;;;;;;;;;;;;;4.35;92.34;100038.66;5054232;28;20353;-34
2022/03/31 12:29:14;;;;;;;;;;;;;;;4.33;92.41;100037.22;5053310;28;20020;-34
2022/03/31 12:31:39;;;;;;;;;;;;;;;4.27;92.17;100044.22;5053877;28;19913;-34
2022/03/31 12:34:04;;;;;;;;;;;;;;;4.29;92.03;100039.47;5054414;28;19919;-35
2022/03/31 12:36:32;;;;;;;;;;;;;;;4.28;92.80;100031.66;5053217;28;20396;-34
2022/03/31 12:38:58;;;;;;;;;;;;;;;4.41;92.45;100038.84;5053404;28;19913;-34
2022/03/31 12:41:34;;;;;;;;;;;;;;;4.49;91.54;100036.78;5053669;28;19913;-35
2022/03/31 12:44:15;;;;;;;;;;;;;;;4.58;91.65;100038.16;5053961;28;20253;-35
2022/03/31 12:47:00;;;;;;;;;;;;;;;4.67;91.55;100035.25;5053628;28;19931;-34
2022/03/31 12:49:27;;;;;;;;;;;;;;;4.73;90.96;100039.75;5052857;28;20298;-35